Time;durP1;ratioP1;P1;durP2;ratioP2;P2;SDS_P1;SDS_P2;PMS_P1;PMS_P2;Temp;Humidity;BMP_temperature;BMP_pressure;BME280_temperature;BME280_humidity;BME280_pressure;Samples;Min_cycle;Max_cycle;Signal;HPM_P1;HPM_P2
2022/09/13 00:01:06;;;;;;;21.50;16.05;;;18.30;99.90;;;;;;5102387;27;36089;-62
2022/09/13 00:03:33;;;;;;;21.88;16.52;;;18.30;99.90;;;;;;5103130;27;38182;-61
2022/09/13 00:06:08;;;;;;;21.25;15.40;;;18.30;99.90;;;;;;5102620;27;37989;-61
2022/09/13 00:08:36;;;;;;;20.83;16.15;;;18.30;99.90;;;;;;5101591;27;39535;-61
2022/09/13 00:11:04;;;;;;;19.48;14.95;;;18.30;99.90;;;;;;5101343;27;36788;-61
2022/09/13 00:13:31;;;;;;;24.88;17.95;;;18.30;99.90;;;;;;5103514;27;37106;-61
2022/09/13 00:16:00;;;;;;;21.05;16.20;;;18.30;99.90;;;;;;5100706;27;39144;-61
2022/09/13 00:18:27;;;;;;;17.33;14.73;;;18.30;99.90;;;;;;5101561;27;38567;-61
2022/09/13 00:21:04;;;;;;;20.95;15.80;;;18.20;99.90;;;;;;5102790;27;35879;-61
2022/09/13 00:23:32;;;;;;;18.50;14.43;;;18.30;99.90;;;;;;5101544;27;38308;-61
2022/09/13 00:26:09;;;;;;;21.42;15.73;;;18.30;99.90;;;;;;5101688;27;38517;-61
2022/09/13 00:28:36;;;;;;;16.73;13.68;;;18.30;99.90;;;;;;5102646;27;37510;-61
2022/09/13 00:31:05;;;;;;;17.15;13.45;;;18.20;99.90;;;;;;5101419;27;35543;-61
2022/09/13 00:33:33;;;;;;;19.20;13.07;;;18.30;99.90;;;;;;5102109;27;37713;-61
2022/09/13 00:36:04;;;;;;;14.80;12.63;;;18.20;99.90;;;;;;5102196;27;37083;-61
2022/09/13 00:38:31;;;;;;;17.05;12.45;;;18.20;99.90;;;;;;5101804;27;36599;-61
2022/09/13 00:40:59;;;;;;;19.25;13.98;;;18.20;99.90;;;;;;5101053;27;37348;-61
2022/09/13 00:43:43;;;;;;;19.27;13.80;;;18.20;99.90;;;;;;5102151;27;38276;-61
2022/09/13 00:46:13;;;;;;;16.73;13.00;;;18.20;99.90;;;;;;5100304;27;38039;-61
2022/09/13 00:48:41;;;;;;;19.92;14.13;;;18.20;99.90;;;;;;5102480;27;37700;-61
2022/09/13 00:51:10;;;;;;;20.45;13.95;;;18.20;99.90;;;;;;5099450;27;36777;-61
2022/09/13 00:53:41;;;;;;;21.95;15.18;;;18.20;99.90;;;;;;5100847;27;36348;-61
2022/09/13 00:56:13;;;;;;;20.42;15.52;;;18.20;99.90;;;;;;5101770;27;37597;-61
2022/09/13 00:58:46;;;;;;;22.05;18.20;;;18.20;99.90;;;;;;5102378;27;39352;-61
2022/09/13 01:01:16;;;;;;;22.25;16.77;;;18.20;99.90;;;;;;5102537;27;37478;-61
2022/09/13 01:03:45;;;;;;;20.42;16.25;;;18.20;99.90;;;;;;5101657;27;37128;-61
2022/09/13 01:06:16;;;;;;;20.92;15.93;;;18.20;99.90;;;;;;5101555;27;36835;-61
2022/09/13 01:08:47;;;;;;;21.30;15.23;;;18.20;99.90;;;;;;5102724;27;38057;-61
2022/09/13 01:11:20;;;;;;;18.40;14.18;;;18.20;99.90;;;;;;5101358;27;36275;-61
2022/09/13 01:13:50;;;;;;;16.35;12.27;;;18.20;99.90;;;;;;5101486;27;37455;-61
2022/09/13 01:16:17;;;;;;;18.02;13.00;;;18.20;99.90;;;;;;5101991;27;38643;-61
2022/09/13 01:18:45;;;;;;;19.25;13.25;;;18.20;99.90;;;;;;5101134;27;39890;-61
2022/09/13 01:21:50;;;;;;;19.98;13.40;;;18.20;99.90;;;;;;5101119;27;36598;-62
2022/09/13 01:24:37;;;;;;;15.00;11.57;;;18.20;99.90;;;;;;5099001;27;38310;-61
2022/09/13 01:27:23;;;;;;;16.30;11.63;;;18.20;99.90;;;;;;5102009;27;39104;-61
2022/09/13 01:30:11;;;;;;;18.63;11.98;;;18.20;99.90;;;;;;5100268;27;37919;-61
2022/09/13 01:33:06;;;;;;;13.50;10.60;;;18.20;99.90;;;;;;5102003;27;36768;-61
2022/09/13 01:35:43;;;;;;;14.77;10.10;;;18.20;99.90;;;;;;5101768;27;36335;-61
2022/09/13 01:38:27;;;;;;;13.02;10.75;;;18.10;99.90;;;;;;5104488;27;36917;-61
2022/09/13 01:41:06;;;;;;;13.25;10.07;;;18.20;99.90;;;;;;5104473;27;39326;-61
2022/09/13 01:43:46;;;;;;;13.48;9.93;;;18.10;99.90;;;;;;5105578;27;36766;-61
2022/09/13 01:46:21;;;;;;;17.33;11.10;;;18.10;99.90;;;;;;5104497;27;38184;-61
2022/09/13 01:48:56;;;;;;;13.00;9.60;;;18.10;99.90;;;;;;5105114;27;39114;-61
2022/09/13 01:51:28;;;;;;;14.82;10.75;;;18.10;99.90;;;;;;5100193;27;37400;-61
2022/09/13 01:54:09;;;;;;;11.88;10.45;;;18.10;99.90;;;;;;5102980;27;36499;-61
2022/09/13 01:56:40;;;;;;;16.05;9.95;;;18.10;99.90;;;;;;5103316;27;36349;-61
2022/09/13 01:59:14;;;;;;;11.90;9.20;;;18.10;99.90;;;;;;5104775;27;36787;-61
2022/09/13 02:01:45;;;;;;;;;;;18.10;99.90;;;;;;5104582;27;37840;-61
2022/09/13 02:04:17;;;;;;;12.90;9.98;;;18.10;99.90;;;;;;5105142;27;36617;-61
2022/09/13 02:06:49;;;;;;;15.13;11.57;;;18.10;99.90;;;;;;5103419;27;37777;-61
2022/09/13 02:09:21;;;;;;;15.68;10.95;;;18.10;99.90;;;;;;5104763;27;36837;-61
2022/09/13 02:11:52;;;;;;;15.90;10.05;;;18.10;99.90;;;;;;5102592;27;38693;-61
2022/09/13 02:14:22;;;;;;;13.50;10.32;;;18.10;99.90;;;;;;5104411;27;36472;-61
2022/09/13 02:16:56;;;;;;;12.70;9.88;;;18.10;99.90;;;;;;5103319;27;39081;-61
2022/09/13 02:19:27;;;;;;;13.55;9.80;;;18.10;99.90;;;;;;5103942;27;37101;-61
2022/09/13 02:21:58;;;;;;;13.40;9.82;;;18.10;99.90;;;;;;5103307;27;36641;-61
2022/09/13 02:24:30;;;;;;;11.02;9.13;;;18.10;99.90;;;;;;5105550;27;36403;-61
2022/09/13 02:27:02;;;;;;;14.70;10.88;;;18.10;99.90;;;;;;5104174;27;36429;-62
2022/09/13 02:29:32;;;;;;;14.30;10.68;;;18.10;99.90;;;;;;5103863;27;36886;-61
2022/09/13 02:32:06;;;;;;;13.13;10.18;;;18.10;99.90;;;;;;5102209;27;37784;-61
2022/09/13 02:34:38;;;;;;;15.63;10.48;;;18.10;99.90;;;;;;5103610;27;36796;-61
2022/09/13 02:37:08;;;;;;;15.13;10.63;;;18.10;99.90;;;;;;5103620;27;37462;-61
2022/09/13 02:39:41;;;;;;;14.93;10.88;;;18.10;99.90;;;;;;5103894;27;39307;-61
2022/09/13 02:42:14;;;;;;;12.63;9.80;;;18.10;99.90;;;;;;5104412;27;38895;-61
2022/09/13 02:44:44;;;;;;;13.13;9.82;;;18.10;99.90;;;;;;5103385;27;35723;-61
2022/09/13 02:47:31;;;;;;;17.02;9.85;;;18.10;99.90;;;;;;5103206;27;37498;-61
2022/09/13 02:50:07;;;;;;;12.05;8.93;;;18.10;99.90;;;;;;5103213;27;38146;-61
2022/09/13 02:52:46;;;;;;;13.65;10.25;;;18.10;99.90;;;;;;5104193;27;38240;-61
2022/09/13 02:55:19;;;;;;;15.73;10.07;;;18.10;99.90;;;;;;5102900;27;36744;-61
2022/09/13 02:57:59;;;;;;;18.92;10.38;;;18.20;99.90;;;;;;5103236;27;38025;-62
2022/09/13 03:00:27;;;;;;;15.90;11.43;;;18.20;99.90;;;;;;5103008;27;38558;-61
2022/09/13 03:02:58;;;;;;;14.30;10.77;;;18.20;99.90;;;;;;5103918;27;37629;-61
2022/09/13 03:05:25;;;;;;;14.82;10.00;;;18.20;99.90;;;;;;5102949;27;37591;-61
2022/09/13 03:07:53;;;;;;;8.98;5.35;;;18.20;99.90;;;;;;5104805;27;37574;-61
2022/09/13 03:10:22;;;;;;;7.50;3.85;;;18.20;99.90;;;;;;5102224;27;39284;-61
2022/09/13 03:13:18;;;;;;;5.88;2.38;;;18.20;99.90;;;;;;5103502;27;36729;-61
2022/09/13 03:15:58;;;;;;;7.03;2.13;;;18.20;99.90;;;;;;5102239;27;36423;-60
2022/09/13 03:18:46;;;;;;;5.40;1.92;;;18.10;99.90;;;;;;5102832;27;36212;-61
2022/09/13 03:21:30;;;;;;;3.70;1.45;;;18.10;99.90;;;;;;5102441;27;38229;-61
2022/09/13 03:24:08;;;;;;;3.60;1.20;;;18.10;99.90;;;;;;5103449;27;37573;-61
2022/09/13 03:26:45;;;;;;;2.58;1.30;;;18.10;99.90;;;;;;5103800;27;36078;-61
2022/09/13 03:29:30;;;;;;;2.88;0.90;;;18.10;99.90;;;;;;5101853;27;38016;-61
2022/09/13 03:32:06;;;;;;;3.92;0.90;;;18.20;99.90;;;;;;5102351;27;37997;-61
2022/09/13 03:34:43;;;;;;;2.72;0.80;;;18.00;99.90;;;;;;5103244;27;37486;-61
2022/09/13 03:37:20;;;;;;;2.53;1.00;;;18.00;99.90;;;;;;5103240;27;36949;-61
2022/09/13 03:39:52;;;;;;;5.30;0.80;;;18.00;99.90;;;;;;5102300;27;38226;-61
2022/09/13 03:42:28;;;;;;;3.17;0.93;;;18.00;99.90;;;;;;5102516;27;38594;-61
2022/09/13 03:44:57;;;;;;;3.88;1.10;;;18.00;99.90;;;;;;5102739;27;37576;-62
2022/09/13 03:47:28;;;;;;;2.15;0.93;;;18.00;99.90;;;;;;5103102;27;36132;-61
2022/09/13 03:49:57;;;;;;;2.22;1.17;;;18.00;99.90;;;;;;5099176;27;38532;-61
2022/09/13 03:52:25;;;;;;;4.20;1.10;;;18.00;99.90;;;;;;5101435;27;37987;-62
2022/09/13 03:54:53;;;;;;;2.58;1.20;;;18.00;99.90;;;;;;5102382;27;38447;-61
2022/09/13 03:57:22;;;;;;;7.07;1.05;;;18.00;99.90;;;;;;5101306;27;36545;-61
2022/09/13 03:59:51;;;;;;;2.90;1.00;;;18.00;99.90;;;;;;5102294;27;39113;-61
2022/09/13 04:02:19;;;;;;;3.03;0.82;;;18.00;99.90;;;;;;5103103;27;39152;-61
2022/09/13 04:04:47;;;;;;;4.50;1.17;;;18.00;99.90;;;;;;5101742;27;37773;-61
2022/09/13 04:07:17;;;;;;;3.83;1.20;;;18.00;99.90;;;;;;5102415;27;36458;-61
2022/09/13 04:09:45;;;;;;;2.33;1.27;;;18.00;99.90;;;;;;5101924;27;39098;-61
2022/09/13 04:12:13;;;;;;;2.35;1.10;;;18.00;99.90;;;;;;5101764;27;36011;-61
2022/09/13 04:14:42;;;;;;;4.00;1.30;;;18.00;99.90;;;;;;5101782;27;37380;-61
2022/09/13 04:17:09;;;;;;;5.47;1.40;;;18.00;99.90;;;;;;5102851;27;36932;-61
2022/09/13 04:19:37;;;;;;;2.95;1.10;;;18.00;99.90;;;;;;5102126;27;37637;-62
2022/09/13 04:22:04;;;;;;;6.57;1.52;;;18.00;99.90;;;;;;5102598;27;39610;-61
2022/09/13 04:24:33;;;;;;;4.80;1.30;;;18.00;99.90;;;;;;5100125;27;37593;-59
2022/09/13 04:27:01;;;;;;;2.85;1.23;;;18.00;99.90;;;;;;5101788;27;36604;-59
2022/09/13 04:29:30;;;;;;;3.58;1.30;;;18.00;99.90;;;;;;5101552;27;37563;-59
2022/09/13 04:31:57;;;;;;;3.75;1.25;;;18.00;99.90;;;;;;5099006;27;37657;-59
2022/09/13 04:34:25;;;;;;;4.28;1.30;;;18.00;99.90;;;;;;5101646;27;38427;-59
2022/09/13 04:36:54;;;;;;;4.30;1.30;;;17.90;99.90;;;;;;5099215;27;36416;-59
2022/09/13 04:39:22;;;;;;;3.35;1.40;;;17.90;99.90;;;;;;5102155;27;37489;-61
2022/09/13 04:41:54;;;;;;;3.47;1.42;;;18.00;99.90;;;;;;5101296;27;36912;-61
2022/09/13 04:44:23;;;;;;;3.10;1.58;;;17.90;99.90;;;;;;5103442;27;37926;-61
2022/09/13 04:46:50;;;;;;;6.97;1.48;;;17.90;99.90;;;;;;5102466;27;38052;-61
2022/09/13 04:49:18;;;;;;;3.55;1.35;;;17.90;99.90;;;;;;5101724;27;36218;-61
2022/09/13 04:51:46;;;;;;;2.70;1.10;;;17.90;99.90;;;;;;5100593;27;36937;-61
2022/09/13 04:54:14;;;;;;;2.60;1.17;;;17.90;99.90;;;;;;5102203;27;38040;-61
2022/09/13 04:56:41;;;;;;;3.13;0.90;;;18.00;99.90;;;;;;5102242;27;36473;-59
2022/09/13 04:59:10;;;;;;;2.40;1.10;;;17.90;99.90;;;;;;5102153;27;37312;-59
2022/09/13 05:01:38;;;;;;;4.30;1.10;;;17.90;99.90;;;;;;5102554;27;38197;-59
2022/09/13 05:04:06;;;;;;;3.55;1.67;;;17.90;99.90;;;;;;5099961;27;37560;-59
2022/09/13 05:06:34;;;;;;;3.90;1.40;;;18.00;99.90;;;;;;5102671;27;36035;-59
2022/09/13 05:09:01;;;;;;;3.42;1.10;;;17.90;99.90;;;;;;5102457;27;38652;-59
2022/09/13 05:11:29;;;;;;;6.30;1.30;;;17.90;99.90;;;;;;5105192;27;38077;-59
2022/09/13 05:13:58;;;;;;;5.20;1.63;;;17.90;99.90;;;;;;5104227;27;36594;-59
2022/09/13 05:16:29;;;;;;;6.15;1.45;;;17.90;99.90;;;;;;5102438;27;36432;-61
2022/09/13 05:18:57;;;;;;;3.13;1.05;;;17.90;99.90;;;;;;5102615;27;37473;-61
2022/09/13 05:21:24;;;;;;;5.25;1.20;;;17.90;99.90;;;;;;5103629;27;37910;-61
2022/09/13 05:23:52;;;;;;;6.55;1.92;;;17.90;99.90;;;;;;5104257;27;37498;-61
2022/09/13 05:26:20;;;;;;;5.38;1.40;;;17.90;99.90;;;;;;5104207;27;36768;-61
2022/09/13 05:28:48;;;;;;;4.85;1.63;;;17.90;99.90;;;;;;5104709;27;36564;-61
2022/09/13 05:31:17;;;;;;;5.82;1.50;;;17.90;99.90;;;;;;5103325;27;38028;-61
2022/09/13 05:33:48;;;;;;;5.15;1.40;;;17.90;99.90;;;;;;5103507;27;36456;-61
2022/09/13 05:36:15;;;;;;;4.45;1.52;;;17.90;99.90;;;;;;5104167;27;38022;-61
2022/09/13 05:38:42;;;;;;;4.93;1.90;;;17.90;99.90;;;;;;5102537;27;39199;-61
2022/09/13 05:41:10;;;;;;;5.65;1.90;;;17.90;99.90;;;;;;5102660;27;39681;-62
2022/09/13 05:43:37;;;;;;;2.95;1.40;;;17.90;99.90;;;;;;5104363;27;38764;-61
2022/09/13 05:46:06;;;;;;;5.88;1.60;;;17.90;99.90;;;;;;5104392;27;35329;-61
2022/09/13 05:48:35;;;;;;;3.75;1.33;;;17.90;99.90;;;;;;5103202;27;37491;-61
2022/09/13 05:51:09;;;;;;;3.83;1.42;;;17.90;99.90;;;;;;5104686;27;38583;-61
2022/09/13 05:53:36;;;;;;;6.72;1.67;;;17.90;99.90;;;;;;5104695;27;36658;-61
2022/09/13 05:56:04;;;;;;;4.93;1.40;;;17.90;99.90;;;;;;5105582;27;36502;-61
2022/09/13 05:58:32;;;;;;;16.35;2.17;;;17.90;99.90;;;;;;5104635;27;37372;-61
2022/09/13 06:00:59;;;;;;;7.13;1.58;;;17.90;99.90;;;;;;5105037;27;38966;-61
2022/09/13 06:03:27;;;;;;;6.57;2.08;;;18.00;99.90;;;;;;5105276;27;36571;-61
2022/09/13 06:05:56;;;;;;;7.88;2.88;;;17.90;99.90;;;;;;5102041;27;35387;-61
2022/09/13 06:08:25;;;;;;;8.15;3.03;;;18.00;99.90;;;;;;5103216;27;36492;-61
2022/09/13 06:10:57;;;;;;;6.30;2.65;;;18.00;99.90;;;;;;5100679;27;38195;-61
2022/09/13 06:13:25;;;;;;;8.45;3.28;;;18.00;99.90;;;;;;5104046;27;38014;-61
2022/09/13 06:15:53;;;;;;;7.32;3.50;;;18.00;99.90;;;;;;5103193;27;37359;-61
2022/09/13 06:18:21;;;;;;;9.25;5.72;;;18.00;99.90;;;;;;5101950;27;36371;-61
2022/09/13 06:20:49;;;;;;;10.07;4.93;;;18.00;99.90;;;;;;5103368;27;37708;-61
2022/09/13 06:23:16;;;;;;;11.20;4.40;;;18.00;99.90;;;;;;5103677;27;37514;-61
2022/09/13 06:25:45;;;;;;;7.38;3.08;;;18.00;99.90;;;;;;5102204;27;36567;-61
2022/09/13 06:28:12;;;;;;;6.95;2.17;;;18.00;99.90;;;;;;5103325;27;38559;-61
2022/09/13 06:30:39;;;;;;;4.63;1.77;;;18.00;99.90;;;;;;5099987;27;37883;-61
2022/09/13 06:33:07;;;;;;;6.93;2.47;;;18.00;99.90;;;;;;5102969;27;38527;-61
2022/09/13 06:35:34;;;;;;;6.63;1.75;;;18.10;99.90;;;;;;5102272;27;35392;-62
2022/09/13 06:38:01;;;;;;;6.45;1.73;;;18.10;99.90;;;;;;5104075;27;36958;-61
2022/09/13 06:40:29;;;;;;;5.95;1.67;;;18.10;99.90;;;;;;5103605;27;37255;-61
2022/09/13 06:42:57;;;;;;;6.13;1.90;;;18.10;99.90;;;;;;5104309;27;36417;-61
2022/09/13 06:45:25;;;;;;;8.98;2.25;;;18.20;99.90;;;;;;5103827;27;35314;-61
2022/09/13 06:47:54;;;;;;;8.57;2.40;;;18.20;99.90;;;;;;5103058;27;36957;-59
2022/09/13 06:50:22;;;;;;;7.10;1.95;;;18.20;99.90;;;;;;5102421;27;38627;-59
2022/09/13 06:52:49;;;;;;;7.38;2.17;;;18.20;99.90;;;;;;5103542;27;37895;-59
2022/09/13 06:55:16;;;;;;;6.20;1.73;;;18.20;99.90;;;;;;5102236;27;36579;-59
2022/09/13 06:57:44;;;;;;;7.20;1.80;;;18.20;99.90;;;;;;5102411;27;36300;-59
2022/09/13 07:00:14;;;;;;;6.18;2.13;;;18.20;99.90;;;;;;5101801;27;37863;-61
2022/09/13 07:02:41;;;;;;;7.18;1.80;;;18.30;99.90;;;;;;5103899;27;38798;-62
2022/09/13 07:05:09;;;;;;;8.13;1.90;;;18.30;99.90;;;;;;5103458;27;38155;-61
2022/09/13 07:07:37;;;;;;;5.95;1.50;;;18.30;99.90;;;;;;5103605;27;38308;-61
2022/09/13 07:10:05;;;;;;;5.28;1.27;;;18.30;99.90;;;;;;5103820;27;39256;-61
2022/09/13 07:12:32;;;;;;;6.97;1.23;;;18.30;99.90;;;;;;5104385;27;36592;-61
2022/09/13 07:15:00;;;;;;;4.45;1.00;;;18.30;99.90;;;;;;5101751;27;36712;-61
2022/09/13 07:17:29;;;;;;;4.05;1.08;;;18.30;99.90;;;;;;5103160;27;37929;-60
2022/09/13 07:19:57;;;;;;;4.93;1.30;;;18.30;99.90;;;;;;5102077;27;38419;-61
2022/09/13 07:22:26;;;;;;;7.05;1.33;;;18.40;99.90;;;;;;5103565;27;39931;-59
2022/09/13 07:24:53;;;;;;;4.43;0.82;;;18.30;99.90;;;;;;5102979;27;41109;-59
2022/09/13 07:27:21;;;;;;;6.07;1.20;;;18.40;99.90;;;;;;5097646;27;37581;-59
2022/09/13 07:29:48;;;;;;;5.57;0.93;;;18.30;99.90;;;;;;5103399;27;39597;-58
2022/09/13 07:32:15;;;;;;;7.00;1.20;;;18.30;99.90;;;;;;5101287;27;37697;-59
2022/09/13 07:34:44;;;;;;;4.88;0.90;;;18.30;99.90;;;;;;5103848;27;35364;-59
2022/09/13 07:37:11;;;;;;;4.47;1.40;;;18.20;99.90;;;;;;5102277;27;37798;-59
2022/09/13 07:39:39;;;;;;;8.00;1.38;;;18.20;99.90;;;;;;5103283;27;38328;-59
2022/09/13 07:42:06;;;;;;;6.40;1.00;;;18.20;99.90;;;;;;5102844;27;37814;-58
2022/09/13 07:44:33;;;;;;;6.03;1.10;;;18.20;99.90;;;;;;5102758;27;35395;-61
2022/09/13 07:47:00;;;;;;;7.50;1.05;;;18.20;99.90;;;;;;5101941;27;37525;-61
2022/09/13 07:49:28;;;;;;;6.63;1.60;;;18.20;99.90;;;;;;5100498;27;36797;-61
2022/09/13 07:51:56;;;;;;;8.98;1.52;;;18.20;99.90;;;;;;5100853;27;38125;-59
2022/09/13 07:54:24;;;;;;;5.63;1.98;;;18.30;99.90;;;;;;5102697;27;36187;-61
2022/09/13 07:56:51;;;;;;;8.82;1.10;;;18.30;99.90;;;;;;5096088;27;37760;-61
2022/09/13 07:59:19;;;;;;;7.00;1.13;;;18.30;99.90;;;;;;5101987;27;37920;-61
2022/09/13 08:01:48;;;;;;;8.48;0.82;;;18.40;99.90;;;;;;5102429;27;37738;-61
2022/09/13 08:04:17;;;;;;;7.18;1.10;;;18.40;99.90;;;;;;5102872;27;37241;-61
2022/09/13 08:06:45;;;;;;;6.53;0.90;;;18.40;99.90;;;;;;5102660;27;37482;-61
2022/09/13 08:09:14;;;;;;;7.32;0.90;;;18.40;99.90;;;;;;5101507;27;37103;-61
2022/09/13 08:11:44;;;;;;;6.80;1.00;;;18.40;99.90;;;;;;5100407;27;37960;-61
2022/09/13 08:14:14;;;;;;;6.32;1.30;;;18.40;99.90;;;;;;5100512;27;37056;-61
2022/09/13 08:16:41;;;;;;;7.55;1.08;;;18.40;99.90;;;;;;5100938;27;37510;-61
2022/09/13 08:19:13;;;;;;;5.03;0.90;;;18.40;99.90;;;;;;5101888;27;40703;-61
2022/09/13 08:21:42;;;;;;;7.28;0.95;;;18.40;99.90;;;;;;5102078;27;39111;-61
2022/09/13 08:24:16;;;;;;;8.88;1.17;;;18.40;99.90;;;;;;5101011;27;37212;-61
2022/09/13 08:26:43;;;;;;;8.68;1.30;;;18.40;99.90;;;;;;5102783;27;37570;-61
2022/09/13 08:29:12;;;;;;;5.82;1.45;;;18.50;99.90;;;;;;5102998;27;38036;-61
2022/09/13 08:31:39;;;;;;;6.85;1.20;;;18.60;99.90;;;;;;5102178;27;37697;-61
2022/09/13 08:34:10;;;;;;;12.88;1.90;;;18.70;99.90;;;;;;5102816;27;37695;-61
2022/09/13 08:36:37;;;;;;;7.55;0.95;;;18.70;99.90;;;;;;5103685;27;38014;-61
2022/09/13 08:39:05;;;;;;;11.65;1.70;;;18.70;99.90;;;;;;5102884;27;38145;-61
2022/09/13 08:42:01;;;;;;;8.15;1.20;;;18.70;99.90;;;;;;5103233;27;39129;-61
2022/09/13 08:44:30;;;;;;;4.88;0.77;;;18.70;99.90;;;;;;5103203;27;35348;-61
2022/09/13 08:47:04;;;;;;;5.20;1.08;;;18.70;99.90;;;;;;5105925;27;37331;-61
2022/09/13 08:49:35;;;;;;;5.80;0.85;;;18.80;99.90;;;;;;5103401;27;39323;-61
2022/09/13 08:52:14;;;;;;;5.43;0.90;;;18.90;99.90;;;;;;5103479;27;36610;-61
2022/09/13 08:54:42;;;;;;;4.40;0.88;;;19.00;99.90;;;;;;5106672;27;36449;-61
2022/09/13 08:57:16;;;;;;;10.35;1.92;;;19.10;99.90;;;;;;5106663;27;39061;-61
2022/09/13 08:59:52;;;;;;;5.00;1.02;;;19.10;99.90;;;;;;5104598;27;40019;-61
2022/09/13 09:02:35;;;;;;;7.50;1.40;;;19.10;99.90;;;;;;5104981;27;38262;-61
2022/09/13 09:05:09;;;;;;;6.70;1.25;;;19.10;99.90;;;;;;5105721;27;36476;-61
2022/09/13 09:07:42;;;;;;;5.65;0.82;;;19.20;99.90;;;;;;5106263;27;37576;-61
2022/09/13 09:10:15;;;;;;;4.53;0.90;;;19.30;99.90;;;;;;5104149;27;36837;-61
2022/09/13 09:12:48;;;;;;;8.38;1.48;;;19.40;99.90;;;;;;5104192;27;37561;-61
2022/09/13 09:15:19;;;;;;;6.43;2.05;;;19.50;99.90;;;;;;5105070;27;35991;-61
2022/09/13 09:17:54;;;;;;;5.97;1.60;;;19.50;99.90;;;;;;5104287;27;37691;-61
2022/09/13 09:20:27;;;;;;;6.18;1.25;;;19.50;99.90;;;;;;5104690;27;40909;-61
2022/09/13 09:22:55;;;;;;;3.47;1.20;;;19.50;99.90;;;;;;5105032;27;37734;-61
2022/09/13 09:25:25;;;;;;;5.22;1.30;;;19.50;99.90;;;;;;5105551;27;35618;-61
2022/09/13 09:27:54;;;;;;;6.80;0.93;;;19.50;99.90;;;;;;5105261;27;37537;-61
2022/09/13 09:30:21;;;;;;;10.52;0.77;;;19.60;99.90;;;;;;5103430;27;38998;-62
2022/09/13 09:33:13;;;;;;;5.35;1.00;;;19.70;99.90;;;;;;5104045;27;38818;-61
2022/09/13 09:35:54;;;;;;;5.78;0.93;;;19.80;99.00;;;;;;5104950;27;35326;-59
2022/09/13 09:38:40;;;;;;;6.18;0.90;;;19.80;99.50;;;;;;5104740;27;36551;-59
2022/09/13 09:41:18;;;;;;;7.25;1.33;;;19.80;99.90;;;;;;5104190;27;38904;-61
2022/09/13 09:43:53;;;;;;;5.72;0.90;;;19.90;99.90;;;;;;5106003;27;37950;-61
2022/09/13 09:46:26;;;;;;;5.35;0.75;;;19.90;99.90;;;;;;5104113;27;36360;-61
2022/09/13 09:48:56;;;;;;;6.88;1.17;;;20.00;99.90;;;;;;5104419;27;37708;-61
2022/09/13 09:51:26;;;;;;;7.07;1.25;;;20.10;99.60;;;;;;5103832;27;39356;-61
2022/09/13 09:54:00;;;;;;;7.00;0.95;;;20.20;99.20;;;;;;5104881;27;38175;-61
2022/09/13 09:56:32;;;;;;;3.72;0.90;;;20.20;99.40;;;;;;5105199;27;39446;-61
2022/09/13 09:59:02;;;;;;;5.38;0.82;;;20.20;98.90;;;;;;5105135;27;37125;-61
2022/09/13 10:01:31;;;;;;;6.13;1.40;;;20.10;98.90;;;;;;5104557;27;38010;-61
2022/09/13 10:04:07;;;;;;;5.05;1.10;;;20.10;99.20;;;;;;5103984;27;38655;-59
2022/09/13 10:06:36;;;;;;;8.00;1.10;;;20.20;99.50;;;;;;5104840;27;36175;-59
2022/09/13 10:09:06;;;;;;;5.07;1.00;;;20.30;99.90;;;;;;5105587;27;38220;-59
2022/09/13 10:11:45;;;;;;;6.65;0.98;;;20.50;99.60;;;;;;5103802;27;39046;-59
2022/09/13 10:14:35;;;;;;;5.60;1.15;;;20.60;99.20;;;;;;5105721;27;37482;-59
2022/09/13 10:17:04;;;;;;;5.88;1.02;;;20.80;97.90;;;;;;5104665;27;36463;-59
2022/09/13 10:19:32;;;;;;;7.90;1.00;;;20.90;98.00;;;;;;5104464;27;37400;-59
2022/09/13 10:22:01;;;;;;;8.27;1.00;;;21.00;97.70;;;;;;5104437;27;36921;-59
2022/09/13 10:24:29;;;;;;;4.50;0.73;;;21.10;97.70;;;;;;5105063;27;37747;-59
2022/09/13 10:26:57;;;;;;;6.50;1.55;;;21.30;97.30;;;;;;5104933;27;36353;-61
2022/09/13 10:29:26;;;;;;;4.90;1.00;;;21.30;96.40;;;;;;5106512;27;36428;-61
2022/09/13 10:31:56;;;;;;;7.60;0.85;;;21.30;95.80;;;;;;5103609;27;38617;-61
2022/09/13 10:34:27;;;;;;;5.15;1.02;;;21.30;95.00;;;;;;5104673;27;37774;-61
2022/09/13 10:36:59;;;;;;;4.03;1.50;;;21.10;94.80;;;;;;5103958;27;37293;-61
2022/09/13 10:39:29;;;;;;;6.72;1.10;;;20.90;94.70;;;;;;5105399;27;38430;-61
2022/09/13 10:42:01;;;;;;;3.58;0.85;;;20.70;94.70;;;;;;5104290;27;38139;-61
2022/09/13 10:44:31;;;;;;;4.95;0.73;;;20.50;95.20;;;;;;5103777;27;38449;-61
2022/09/13 10:47:03;;;;;;;3.92;0.80;;;20.60;95.70;;;;;;5101253;27;36291;-59
2022/09/13 10:49:45;;;;;;;4.95;0.82;;;20.70;96.00;;;;;;5102438;27;37183;-59
2022/09/13 10:52:27;;;;;;;7.75;1.25;;;20.90;94.70;;;;;;5101010;27;38303;-59
2022/09/13 10:54:55;;;;;;;4.75;0.90;;;21.10;94.70;;;;;;5101677;27;36538;-59
2022/09/13 10:57:33;;;;;;;6.45;1.33;;;21.40;94.90;;;;;;5101979;27;38982;-59
2022/09/13 11:00:01;;;;;;;8.70;1.35;;;21.50;93.70;;;;;;5101836;27;37822;-62
2022/09/13 11:02:49;;;;;;;5.80;1.10;;;21.40;93.40;;;;;;5098737;27;38785;-61
2022/09/13 11:05:22;;;;;;;7.47;1.10;;;21.20;92.90;;;;;;5100426;27;37589;-61
2022/09/13 11:08:22;;;;;;;4.82;0.80;;;21.10;93.90;;;;;;5100196;27;36551;-62
2022/09/13 11:11:01;;;;;;;7.00;0.85;;;21.10;93.20;;;;;;5056694;27;36508;-62
2022/09/13 11:13:39;;;;;;;8.98;1.70;;;21.30;93.00;;;;;;5103308;27;39551;-61
2022/09/13 11:16:22;;;;;;;6.00;0.98;;;21.40;93.90;;;;;;5102021;27;38653;-61
2022/09/13 11:19:01;;;;;;;4.07;1.05;;;21.50;93.10;;;;;;5103535;27;36554;-61
2022/09/13 11:21:41;;;;;;;3.95;0.93;;;21.60;92.90;;;;;;5101468;27;38550;-62
2022/09/13 11:24:20;;;;;;;5.60;0.90;;;21.80;93.30;;;;;;5103362;27;37993;-61
2022/09/13 11:26:58;;;;;;;6.05;1.15;;;21.90;91.80;;;;;;5102529;27;39128;-61
2022/09/13 11:29:42;;;;;;;7.45;1.20;;;21.80;91.30;;;;;;5102756;27;36665;-61
2022/09/13 11:32:24;;;;;;;6.90;1.50;;;21.60;91.10;;;;;;5103082;27;38776;-62
2022/09/13 11:35:12;;;;;;;5.43;1.00;;;21.40;91.30;;;;;;5102584;27;38236;-61
2022/09/13 11:37:51;;;;;;;10.88;1.42;;;21.20;92.00;;;;;;5104028;27;38488;-61
2022/09/13 11:40:29;;;;;;;15.45;2.05;;;21.20;92.90;;;;;;5103106;27;37435;-61
2022/09/13 11:43:07;;;;;;;6.80;1.10;;;21.30;92.60;;;;;;5103647;27;36332;-61
2022/09/13 11:45:40;;;;;;;6.75;1.38;;;21.40;93.10;;;;;;5102448;27;37838;-61
2022/09/13 11:48:30;;;;;;;8.93;1.83;;;21.30;93.00;;;;;;5103493;27;37543;-61
2022/09/13 11:51:07;;;;;;;8.10;0.85;;;21.10;92.70;;;;;;5080226;27;36742;-61
2022/09/13 11:54:01;;;;;;;4.10;0.80;;;21.10;93.00;;;;;;5103211;27;39130;-61
2022/09/13 11:56:33;;;;;;;5.95;1.10;;;21.10;93.70;;;;;;5103085;27;37790;-61
2022/09/13 11:59:15;;;;;;;7.40;1.23;;;21.30;94.00;;;;;;5101939;27;38468;-61
2022/09/13 12:01:47;;;;;;;5.05;1.13;;;21.40;93.30;;;;;;5102119;27;37002;-61
2022/09/13 12:04:22;;;;;;;6.82;1.10;;;21.40;93.10;;;;;;5103295;27;40055;-61
2022/09/13 12:06:57;;;;;;;6.50;1.30;;;21.30;93.30;;;;;;5101442;27;38263;-61
2022/09/13 12:09:29;;;;;;;10.73;1.17;;;21.40;93.50;;;;;;5101509;27;38364;-61
2022/09/13 12:12:03;;;;;;;4.38;0.85;;;21.40;93.20;;;;;;5100593;27;36761;-59
2022/09/13 12:14:37;;;;;;;7.47;1.52;;;21.40;92.80;;;;;;5102480;27;40078;-61
2022/09/13 12:17:12;;;;;;;8.52;1.38;;;21.40;92.80;;;;;;5101970;27;36909;-62
2022/09/13 12:19:45;;;;;;;9.65;2.10;;;21.40;92.70;;;;;;5101119;27;37937;-61
2022/09/13 12:22:15;;;;;;;9.20;2.22;;;21.50;92.50;;;;;;5102772;27;37530;-61
2022/09/13 12:24:46;;;;;;;7.65;1.27;;;21.40;92.60;;;;;;5102292;27;39147;-59
2022/09/13 12:27:23;;;;;;;5.13;1.20;;;21.30;92.40;;;;;;5102545;27;39403;-59
2022/09/13 12:29:54;;;;;;;6.18;1.58;;;21.20;92.40;;;;;;5101985;27;39289;-59
2022/09/13 12:32:23;;;;;;;10.85;1.85;;;21.00;92.60;;;;;;5101502;27;37024;-61
2022/09/13 12:34:58;;;;;;;7.85;1.08;;;21.00;93.60;;;;;;5103026;27;37560;-61
2022/09/13 12:37:55;;;;;;;8.40;1.83;;;20.90;93.30;;;;;;5103557;27;38302;-61
2022/09/13 12:40:54;;;;;;;7.72;1.50;;;20.90;92.90;;;;;;5100382;27;38537;-59
2022/09/13 12:43:47;;;;;;;7.32;1.20;;;20.70;93.20;;;;;;5103289;27;35513;-61
2022/09/13 12:46:32;;;;;;;9.02;1.20;;;20.60;93.90;;;;;;5098787;27;37644;-61
2022/09/13 12:49:35;;;;;;;7.30;1.10;;;20.60;94.00;;;;;;5101539;27;38260;-61
2022/09/13 12:52:28;;;;;;;8.93;1.20;;;20.60;94.40;;;;;;5089961;27;37535;-61
2022/09/13 12:55:34;;;;;;;11.27;1.88;;;20.70;93.90;;;;;;5101762;27;37268;-61
2022/09/13 12:58:17;;;;;;;5.63;1.02;;;20.60;93.90;;;;;;5101991;27;37763;-59
2022/09/13 13:01:01;;;;;;;5.90;1.48;;;20.60;94.30;;;;;;5102628;27;38046;-59
2022/09/13 13:03:31;;;;;;;6.97;1.33;;;20.50;94.30;;;;;;5101348;27;37643;-61
2022/09/13 13:06:09;;;;;;;8.13;1.58;;;20.50;94.20;;;;;;5100778;27;35520;-58
2022/09/13 13:08:38;;;;;;;8.57;1.30;;;20.50;93.70;;;;;;5100184;27;37355;-59
2022/09/13 13:11:10;;;;;;;6.22;1.27;;;20.40;93.80;;;;;;5101107;27;38618;-59